Portada
METAR-TAF:

METAR-TAF

Aeropuertos :

Trevico, Italia

latitud: 41-03N, longitud: 015-14E, altitud: 1085 m

Observación

El informe se hizo hace 1 hora y 24 minutos, a las 02:55 UTC
Viento 21 kt del oeste
Temperatura 5°C
Humedad 87%
Presión 1017 hPa
Visibilidad menor de 50 m
niebla

METAR: LIRT 250255Z 27021KT 0000 FG VV/// 05/03 Q1017 RMK MON INVIS VAL INVIS VIS MIN 0000

Hora: 05:19 (04:19 UTC)


TAF: falta

Observaciones y pronósticos meteorológicos de más de 4000 aeropuertos (mensajes METAR y TAF).

Los puntos amarillos y rojos representan las estaciones disponibles.

Ponga el ratón en el punto deseado para ver el nombre de la estación.

Haga clic para ver las observaciones y los pronósticos meteorológicos.

Para cambiar el mapa : haga clic en los botones verdes con una cruz de color negro para hacer un zoom, en el botón verde con un guión para alejar o en las flechas verdes para mapas adyacentes.


METAR-TAF: